createdAt,value
2018-07-31T00:00:29.140Z,3.87
2018-07-31T00:02:57.497Z,3.47
2018-07-31T00:05:26.018Z,4.53
2018-07-31T00:07:54.562Z,3.60
2018-07-31T00:10:23.208Z,3.80
2018-07-31T00:12:51.639Z,3.70
2018-07-31T00:15:19.817Z,4.10
2018-07-31T00:17:47.832Z,3.40
2018-07-31T00:20:16.392Z,3.47
2018-07-31T00:22:45.042Z,3.50
2018-07-31T00:25:14.022Z,3.50
2018-07-31T00:27:42.217Z,3.77
2018-07-31T00:30:10.507Z,3.70
2018-07-31T00:32:39.147Z,3.70
2018-07-31T00:35:08.070Z,4.33
2018-07-31T00:37:36.758Z,4.50
2018-07-31T00:40:05.107Z,4.70
2018-07-31T00:42:33.169Z,3.83
2018-07-31T00:45:01.505Z,3.70
2018-07-31T00:47:29.618Z,3.40
2018-07-31T00:49:57.789Z,3.50
2018-07-31T00:52:25.925Z,3.35
2018-07-31T00:54:54.069Z,3.77
2018-07-31T00:57:22.146Z,3.40
2018-07-31T00:59:50.274Z,3.20
2018-07-31T01:02:19.318Z,3.30
2018-07-31T01:04:47.377Z,3.60
2018-07-31T01:07:15.685Z,3.50
2018-07-31T01:09:43.737Z,3.40
2018-07-31T01:12:11.812Z,3.20
2018-07-31T01:14:40.401Z,3.27
2018-07-31T01:17:08.749Z,4.30
2018-07-31T01:19:37.157Z,3.40
2018-07-31T01:22:05.846Z,3.50
2018-07-31T01:24:34.535Z,3.40
2018-07-31T01:27:02.914Z,3.30
2018-07-31T01:29:31.269Z,3.30
2018-07-31T01:31:59.663Z,3.42
2018-07-31T01:34:27.805Z,3.58
2018-07-31T01:36:56.535Z,3.20
2018-07-31T01:39:24.544Z,3.20
2018-07-31T01:41:53.180Z,3.30
2018-07-31T01:44:21.276Z,3.25
2018-07-31T01:46:49.736Z,3.20
2018-07-31T01:49:17.996Z,3.60
2018-07-31T01:51:46.392Z,3.33
2018-07-31T01:54:14.777Z,3.70
2018-07-31T01:56:43.033Z,3.45
2018-07-31T01:59:11.634Z,3.30
2018-07-31T02:01:40.214Z,3.80
2018-07-31T02:04:08.681Z,3.70
2018-07-31T02:06:37.804Z,3.80
2018-07-31T02:09:07.297Z,3.72
2018-07-31T02:11:35.493Z,3.33
2018-07-31T02:14:04.010Z,3.50
2018-07-31T02:16:32.170Z,3.60
2018-07-31T02:19:00.685Z,3.90
2018-07-31T02:21:29.297Z,3.50
2018-07-31T02:23:57.774Z,4.00
2018-07-31T02:26:26.361Z,3.50
2018-07-31T02:28:54.815Z,3.50
2018-07-31T02:31:23.426Z,3.87
2018-07-31T02:33:52.015Z,3.80
2018-07-31T02:36:20.598Z,3.90
2018-07-31T02:38:48.978Z,3.43
2018-07-31T02:41:17.965Z,3.70
2018-07-31T02:43:46.668Z,3.90
2018-07-31T02:46:15.205Z,3.70
2018-07-31T02:48:43.521Z,3.60
2018-07-31T02:51:12.269Z,3.40
2018-07-31T02:53:40.789Z,3.50
2018-07-31T02:56:09.377Z,3.62
2018-07-31T02:58:37.620Z,3.30
2018-07-31T03:01:06.234Z,3.80
2018-07-31T03:03:34.481Z,3.30
2018-07-31T03:06:02.845Z,3.50
2018-07-31T03:08:31.578Z,3.60
2018-07-31T03:11:00.298Z,3.30
2018-07-31T03:13:28.645Z,4.70
2018-07-31T03:15:56.916Z,8.50
2018-07-31T03:18:25.706Z,14.58
2018-07-31T03:20:54.090Z,9.10
2018-07-31T03:23:22.525Z,6.35
2018-07-31T03:25:51.383Z,5.77
2018-07-31T03:28:19.647Z,5.33
2018-07-31T03:30:47.908Z,4.40
2018-07-31T03:33:16.119Z,4.30
2018-07-31T03:35:44.910Z,4.40
2018-07-31T03:38:13.258Z,3.80
2018-07-31T03:40:41.498Z,4.10
2018-07-31T03:43:09.504Z,3.90
2018-07-31T03:45:37.906Z,3.87
2018-07-31T03:48:06.665Z,4.10
2018-07-31T03:50:34.733Z,3.60
2018-07-31T03:53:03.160Z,3.90
2018-07-31T03:55:31.504Z,4.35
2018-07-31T03:57:59.883Z,3.90
2018-07-31T04:00:27.967Z,3.90
2018-07-31T04:02:56.335Z,3.80
2018-07-31T04:05:24.420Z,4.50
2018-07-31T04:07:52.852Z,4.22
2018-07-31T04:10:21.282Z,4.20
2018-07-31T04:12:49.336Z,4.08
2018-07-31T04:15:17.381Z,4.20
2018-07-31T04:17:52.405Z,4.20
2018-07-31T04:20:20.470Z,4.00
2018-07-31T04:22:48.918Z,4.00
2018-07-31T04:25:17.233Z,4.53
2018-07-31T04:27:45.550Z,4.43
2018-07-31T04:30:13.655Z,4.40
2018-07-31T04:32:41.697Z,4.00
2018-07-31T04:35:10.377Z,4.30
2018-07-31T04:37:38.365Z,4.00
2018-07-31T04:40:06.401Z,4.40
2018-07-31T04:42:34.486Z,4.47
2018-07-31T04:45:02.785Z,4.22
2018-07-31T04:47:30.905Z,4.20
2018-07-31T04:49:59.097Z,4.20
2018-07-31T04:52:27.353Z,4.58
2018-07-31T04:54:55.470Z,4.60
2018-07-31T04:57:23.748Z,4.73
2018-07-31T04:59:52.150Z,4.10
2018-07-31T05:02:21.018Z,3.80
2018-07-31T05:04:49.983Z,4.15
2018-07-31T05:07:18.501Z,4.17
2018-07-31T05:09:46.875Z,4.50
2018-07-31T05:12:15.954Z,4.40
2018-07-31T05:14:44.649Z,4.35
2018-07-31T05:17:12.950Z,4.50
2018-07-31T05:19:40.961Z,4.23
2018-07-31T05:22:09.730Z,4.33
2018-07-31T05:24:37.957Z,4.70
2018-07-31T05:27:06.553Z,4.23
2018-07-31T05:29:35.923Z,4.65
2018-07-31T05:32:04.174Z,4.72
2018-07-31T05:34:32.617Z,4.72
2018-07-31T05:37:00.681Z,4.75
2018-07-31T05:39:28.971Z,4.80
2018-07-31T05:41:57.998Z,4.40
2018-07-31T05:44:26.205Z,4.97
2018-07-31T05:46:55.534Z,4.40
2018-07-31T05:49:23.814Z,4.30
2018-07-31T05:51:52.352Z,4.50
2018-07-31T05:54:20.619Z,4.60
2018-07-31T05:56:48.716Z,4.75
2018-07-31T05:59:17.834Z,4.30
2018-07-31T06:01:46.331Z,4.83
2018-07-31T06:04:14.670Z,4.80
2018-07-31T06:06:43.665Z,4.33
2018-07-31T06:09:12.031Z,4.47
2018-07-31T06:11:40.329Z,4.90
2018-07-31T06:14:09.753Z,4.63
2018-07-31T06:16:38.838Z,4.70
2018-07-31T06:19:08.046Z,4.67
2018-07-31T06:21:36.527Z,4.80
2018-07-31T06:24:04.740Z,4.50
2018-07-31T06:26:33.081Z,4.80
2018-07-31T06:29:01.323Z,4.57
2018-07-31T06:31:30.103Z,4.83
2018-07-31T06:33:58.121Z,4.60
2018-07-31T06:36:26.607Z,4.50
2018-07-31T06:38:54.871Z,4.50
2018-07-31T06:41:23.229Z,4.42
2018-07-31T06:43:52.042Z,4.20
2018-07-31T06:46:20.193Z,4.25
2018-07-31T06:48:48.897Z,4.40
2018-07-31T06:51:17.065Z,4.60
2018-07-31T06:53:45.769Z,4.65
2018-07-31T06:56:14.122Z,4.70
2018-07-31T06:58:42.766Z,4.80
2018-07-31T07:01:11.107Z,4.45
2018-07-31T07:03:39.383Z,4.70
2018-07-31T07:06:07.518Z,4.30
2018-07-31T07:08:35.890Z,4.60
2018-07-31T07:11:04.227Z,4.50
2018-07-31T07:13:32.594Z,4.00
2018-07-31T07:16:01.015Z,4.40
2018-07-31T07:18:29.558Z,4.70
2018-07-31T07:20:57.830Z,4.50
2018-07-31T07:23:26.165Z,4.65
2018-07-31T07:25:54.299Z,4.20
2018-07-31T07:28:23.486Z,4.50
2018-07-31T07:30:51.618Z,4.30
2018-07-31T07:33:19.933Z,4.10
2018-07-31T07:35:47.969Z,4.00
2018-07-31T07:38:16.029Z,4.10
2018-07-31T07:40:44.147Z,4.03
2018-07-31T07:43:12.501Z,4.10
2018-07-31T07:45:40.761Z,3.85
2018-07-31T07:48:08.797Z,4.10
2018-07-31T07:50:37.439Z,4.20
2018-07-31T07:53:05.782Z,4.00
2018-07-31T07:55:33.901Z,4.00
2018-07-31T07:58:02.064Z,4.20
2018-07-31T08:00:30.781Z,4.00
2018-07-31T08:02:59.125Z,4.15
2018-07-31T08:05:28.354Z,3.70
2018-07-31T08:07:56.721Z,4.20
2018-07-31T08:10:24.786Z,3.70
2018-07-31T08:12:53.195Z,4.30
2018-07-31T08:15:21.453Z,4.05
2018-07-31T08:17:49.688Z,4.15
2018-07-31T08:20:17.685Z,3.90
2018-07-31T08:22:45.783Z,4.20
2018-07-31T08:25:14.071Z,4.40
2018-07-31T08:27:42.596Z,4.40
2018-07-31T08:30:11.124Z,4.80
2018-07-31T08:32:39.607Z,4.00
2018-07-31T08:35:08.163Z,4.07
2018-07-31T08:37:36.706Z,4.53
2018-07-31T08:40:05.463Z,4.20
2018-07-31T08:42:33.645Z,3.90
2018-07-31T08:45:01.906Z,3.83
2018-07-31T08:47:30.382Z,4.20
2018-07-31T08:49:58.633Z,3.80
2018-07-31T08:52:26.750Z,4.30
2018-07-31T08:54:54.882Z,4.42
2018-07-31T08:57:24.526Z,4.10
2018-07-31T08:59:52.717Z,3.60
2018-07-31T09:02:21.946Z,3.60
2018-07-31T09:04:50.422Z,3.67
2018-07-31T09:07:19.174Z,3.65
2018-07-31T09:09:47.665Z,3.40
2018-07-31T09:12:15.693Z,3.50
2018-07-31T09:14:44.210Z,3.87
2018-07-31T09:17:12.710Z,3.50
2018-07-31T09:19:41.632Z,3.52
2018-07-31T09:22:11.189Z,3.40
2018-07-31T09:24:39.727Z,3.50
2018-07-31T09:27:07.779Z,3.40
2018-07-31T09:29:36.254Z,3.40
2018-07-31T09:32:04.465Z,3.42
2018-07-31T09:34:36.971Z,3.80
2018-07-31T09:37:05.155Z,3.47
2018-07-31T09:39:34.047Z,3.60
2018-07-31T09:42:02.254Z,4.85
2018-07-31T09:44:30.889Z,3.85
2018-07-31T09:46:59.666Z,4.33
2018-07-31T09:49:28.585Z,3.40
2018-07-31T09:51:57.076Z,3.70
2018-07-31T09:54:25.729Z,3.55
2018-07-31T09:56:54.943Z,3.10
2018-07-31T09:59:24.141Z,3.30
2018-07-31T10:01:52.442Z,3.30
2018-07-31T10:04:21.006Z,3.25
2018-07-31T10:06:49.311Z,3.30
2018-07-31T10:09:18.061Z,3.40
2018-07-31T10:11:46.778Z,3.75
2018-07-31T10:14:15.447Z,3.47
2018-07-31T10:16:43.616Z,3.90
2018-07-31T10:19:12.201Z,4.00
2018-07-31T10:21:40.482Z,3.50
2018-07-31T10:24:09.478Z,3.47
2018-07-31T10:26:37.999Z,3.10
2018-07-31T10:29:06.600Z,3.60
2018-07-31T10:31:35.118Z,3.40
2018-07-31T10:34:04.004Z,3.40
2018-07-31T10:36:32.059Z,3.50
2018-07-31T10:39:00.730Z,3.60
2018-07-31T10:41:28.843Z,3.70
2018-07-31T10:43:57.697Z,3.50
2018-07-31T10:46:25.701Z,3.35
2018-07-31T10:48:54.295Z,3.35
2018-07-31T10:51:24.101Z,3.20
2018-07-31T10:53:52.557Z,3.70
2018-07-31T10:56:20.930Z,3.40
2018-07-31T10:58:49.175Z,3.10
2018-07-31T11:01:17.282Z,3.00
2018-07-31T11:03:45.322Z,3.20
2018-07-31T11:06:13.725Z,3.10
2018-07-31T11:08:42.248Z,3.25
2018-07-31T11:11:11.247Z,3.05
2018-07-31T11:13:39.634Z,3.10
2018-07-31T11:16:07.730Z,3.30
2018-07-31T11:18:35.789Z,3.60
2018-07-31T11:21:04.470Z,3.60
2018-07-31T11:23:32.620Z,3.67
2018-07-31T11:26:00.975Z,3.10
2018-07-31T11:28:29.360Z,3.60
2018-07-31T11:30:57.737Z,3.50
2018-07-31T11:33:26.052Z,3.45
2018-07-31T11:35:54.176Z,3.20
2018-07-31T11:38:22.602Z,3.20
2018-07-31T11:40:51.078Z,3.33
2018-07-31T11:43:19.147Z,3.12
2018-07-31T11:45:47.283Z,3.42
2018-07-31T11:48:15.348Z,3.20
2018-07-31T11:50:43.421Z,3.08
2018-07-31T11:53:11.841Z,3.27
2018-07-31T11:55:40.091Z,3.40
2018-07-31T11:58:08.361Z,3.60
2018-07-31T12:00:36.678Z,3.20
2018-07-31T12:03:06.306Z,2.90
2018-07-31T12:05:35.581Z,3.20
2018-07-31T12:08:03.581Z,3.10
2018-07-31T12:10:31.709Z,4.70
2018-07-31T12:13:00.469Z,3.80
2018-07-31T12:15:28.917Z,3.58
2018-07-31T12:17:57.751Z,3.40
2018-07-31T12:20:26.117Z,3.50
2018-07-31T12:22:54.214Z,3.40
2018-07-31T12:25:22.903Z,3.40
2018-07-31T12:27:51.203Z,3.20
2018-07-31T12:30:19.562Z,3.30
2018-07-31T12:32:48.116Z,3.40
2018-07-31T12:35:16.205Z,3.10
2018-07-31T12:37:44.817Z,3.25
2018-07-31T12:40:13.505Z,3.30
2018-07-31T12:42:41.588Z,3.10
2018-07-31T12:45:09.761Z,3.25
2018-07-31T12:47:38.545Z,3.20
2018-07-31T12:50:07.195Z,3.30
2018-07-31T12:52:35.714Z,3.50
2018-07-31T12:55:04.249Z,3.20
2018-07-31T12:57:32.778Z,3.10
2018-07-31T13:00:01.411Z,3.00
2018-07-31T13:02:29.645Z,3.30
2018-07-31T13:04:57.825Z,3.30
2018-07-31T13:07:25.984Z,3.20
2018-07-31T13:09:54.749Z,3.40
2018-07-31T13:12:23.157Z,3.42
2018-07-31T13:14:51.156Z,3.70
2018-07-31T13:17:19.668Z,3.70
2018-07-31T13:19:48.223Z,3.23
2018-07-31T13:22:16.840Z,3.60
2018-07-31T13:24:44.930Z,3.80
2018-07-31T13:27:13.117Z,3.50
2018-07-31T13:29:41.874Z,3.25
2018-07-31T13:32:10.045Z,3.67
2018-07-31T13:34:38.206Z,4.25
2018-07-31T13:37:06.453Z,3.50
2018-07-31T13:39:34.652Z,3.50
2018-07-31T13:42:02.796Z,3.60
2018-07-31T13:44:31.071Z,3.60
2018-07-31T13:46:59.102Z,4.00
2018-07-31T13:49:27.710Z,4.00
2018-07-31T13:51:55.891Z,3.90
2018-07-31T13:54:24.370Z,4.00
2018-07-31T13:56:52.611Z,3.55
2018-07-31T13:59:21.173Z,4.20
2018-07-31T14:01:49.600Z,3.80
2018-07-31T14:04:17.708Z,4.37
2018-07-31T14:06:46.380Z,4.22
2018-07-31T14:09:15.179Z,4.00
2018-07-31T14:11:43.517Z,3.80
2018-07-31T14:14:12.162Z,4.15
2018-07-31T14:16:40.342Z,4.00
2018-07-31T14:19:08.551Z,4.00
2018-07-31T14:21:37.353Z,3.83
2018-07-31T14:24:05.821Z,4.20
2018-07-31T14:26:34.158Z,3.90
2018-07-31T14:29:02.979Z,3.90
2018-07-31T14:31:31.129Z,4.17
2018-07-31T14:33:59.903Z,4.65
2018-07-31T14:36:28.260Z,4.40
2018-07-31T14:38:56.634Z,4.12
2018-07-31T14:41:25.224Z,4.03
2018-07-31T14:43:53.598Z,4.37
2018-07-31T14:46:21.649Z,4.50
2018-07-31T14:48:50.051Z,4.30
2018-07-31T14:51:18.572Z,4.40
2018-07-31T14:53:47.218Z,4.30
2018-07-31T14:56:15.889Z,4.30
2018-07-31T14:58:44.441Z,4.60
2018-07-31T15:01:12.514Z,4.90
2018-07-31T15:03:41.353Z,6.40
2018-07-31T15:06:09.734Z,5.80
2018-07-31T15:08:39.830Z,6.05
2018-07-31T15:11:09.759Z,6.33
2018-07-31T15:13:38.131Z,6.70
2018-07-31T15:16:06.424Z,7.60
2018-07-31T15:18:34.803Z,6.70
2018-07-31T15:21:02.960Z,7.70
2018-07-31T15:23:31.714Z,8.10
2018-07-31T15:25:59.690Z,7.30
2018-07-31T15:28:28.246Z,7.50
2018-07-31T15:30:56.625Z,7.50
2018-07-31T15:33:25.032Z,7.30
2018-07-31T15:35:53.687Z,6.95
2018-07-31T15:38:21.909Z,7.00
2018-07-31T15:40:50.054Z,7.70
2018-07-31T15:43:18.087Z,7.20
2018-07-31T15:45:46.960Z,6.35
2018-07-31T15:48:15.285Z,6.65
2018-07-31T15:50:43.625Z,6.90
2018-07-31T15:53:12.010Z,6.80
2018-07-31T15:55:40.490Z,6.13
2018-07-31T15:58:08.542Z,6.07
2018-07-31T16:00:37.054Z,6.15
2018-07-31T16:03:05.166Z,5.60
2018-07-31T16:05:34.010Z,6.25
2018-07-31T16:08:02.286Z,6.05
2018-07-31T16:10:30.484Z,5.78
2018-07-31T16:12:59.249Z,5.53
2018-07-31T16:15:27.906Z,5.60
2018-07-31T16:17:56.181Z,5.60
2018-07-31T16:20:26.373Z,5.62
2018-07-31T16:22:56.372Z,5.60
2018-07-31T16:25:25.140Z,5.30
2018-07-31T16:27:53.597Z,5.22
2018-07-31T16:30:22.257Z,5.45
2018-07-31T16:32:50.509Z,5.17
2018-07-31T16:35:18.851Z,5.60
2018-07-31T16:37:46.958Z,5.28
2018-07-31T16:40:15.107Z,5.17
2018-07-31T16:42:43.165Z,5.00
2018-07-31T16:45:12.002Z,5.30
2018-07-31T16:47:40.124Z,5.10
2018-07-31T16:50:08.413Z,5.10
2018-07-31T16:52:36.538Z,4.90
2018-07-31T16:55:05.051Z,4.67
2018-07-31T16:57:33.153Z,5.10
2018-07-31T17:00:02.039Z,4.90
2018-07-31T17:02:30.326Z,4.60
2018-07-31T17:04:58.406Z,4.80
2018-07-31T17:07:27.258Z,5.05
2018-07-31T17:09:55.782Z,4.90
2018-07-31T17:12:24.346Z,5.10
2018-07-31T17:14:52.925Z,5.25
2018-07-31T17:17:20.998Z,5.10
2018-07-31T17:19:49.111Z,5.00
2018-07-31T17:22:17.246Z,4.87
2018-07-31T17:24:45.730Z,5.10
2018-07-31T17:27:13.989Z,5.20
2018-07-31T17:29:42.112Z,5.30
2018-07-31T17:32:10.433Z,5.00
2018-07-31T17:34:38.516Z,5.20
2018-07-31T17:37:06.626Z,4.95
2018-07-31T17:39:35.698Z,4.90
2018-07-31T17:42:04.081Z,4.97
2018-07-31T17:44:32.153Z,5.10
2018-07-31T17:47:00.423Z,5.28
2018-07-31T17:49:28.584Z,5.35
2018-07-31T17:51:56.884Z,5.30
2018-07-31T17:54:25.203Z,6.00
2018-07-31T17:56:53.413Z,5.72
2018-07-31T17:59:21.937Z,13.32
2018-07-31T18:01:50.235Z,10.85
2018-07-31T18:04:18.553Z,8.58
2018-07-31T18:06:47.044Z,7.30
2018-07-31T18:09:15.628Z,6.80
2018-07-31T18:11:43.693Z,7.13
2018-07-31T18:14:12.477Z,10.15
2018-07-31T18:16:40.638Z,11.20
2018-07-31T18:19:09.397Z,11.28
2018-07-31T18:21:37.801Z,8.03
2018-07-31T18:24:06.743Z,7.30
2018-07-31T18:26:35.129Z,7.45
2018-07-31T18:29:03.459Z,7.65
2018-07-31T18:31:31.735Z,8.70
2018-07-31T18:33:59.820Z,11.33
2018-07-31T18:36:28.377Z,9.30
2018-07-31T18:38:56.917Z,26.10
2018-07-31T18:41:25.083Z,19.95
2018-07-31T18:43:53.150Z,12.73
2018-07-31T18:46:21.535Z,8.50
2018-07-31T18:48:49.833Z,7.60
2018-07-31T18:51:17.904Z,7.83
2018-07-31T18:53:46.240Z,7.42
2018-07-31T18:56:14.488Z,7.80
2018-07-31T18:58:42.566Z,7.30
2018-07-31T19:01:11.855Z,7.75
2018-07-31T19:03:40.061Z,7.58
2018-07-31T19:06:08.190Z,7.00
2018-07-31T19:08:36.842Z,7.60
2018-07-31T19:11:05.278Z,7.10
2018-07-31T19:13:33.724Z,7.30
2018-07-31T19:16:01.877Z,7.42
2018-07-31T19:18:30.166Z,7.30
2018-07-31T19:20:58.953Z,7.47
2018-07-31T19:23:27.462Z,7.80
2018-07-31T19:25:55.613Z,7.90
2018-07-31T19:28:24.073Z,8.13
2018-07-31T19:30:53.388Z,8.35
2018-07-31T19:33:21.499Z,9.00
2018-07-31T19:35:49.947Z,8.68
2018-07-31T19:38:18.826Z,8.18
2018-07-31T19:40:47.304Z,8.93
2018-07-31T19:43:15.346Z,9.20
2018-07-31T19:45:43.398Z,8.70
2018-07-31T19:48:11.486Z,7.60
2018-07-31T19:50:39.770Z,8.25
2018-07-31T19:53:08.929Z,8.75
2018-07-31T19:55:37.906Z,8.77
2018-07-31T19:58:06.153Z,9.00
2018-07-31T20:00:34.211Z,8.90
2018-07-31T20:03:03.145Z,9.20
2018-07-31T20:05:31.613Z,9.23
2018-07-31T20:07:59.985Z,9.60
2018-07-31T20:10:28.290Z,9.40
2018-07-31T20:12:56.634Z,8.30
2018-07-31T20:15:25.242Z,9.20
2018-07-31T20:17:54.643Z,7.95
2018-07-31T20:20:23.046Z,7.45
2018-07-31T20:22:51.493Z,7.92
2018-07-31T20:25:19.703Z,7.15
2018-07-31T20:27:48.250Z,7.05
2018-07-31T20:30:16.301Z,7.20
2018-07-31T20:32:44.326Z,7.03
2018-07-31T20:35:13.216Z,6.85
2018-07-31T20:37:41.466Z,6.47
2018-07-31T20:40:09.713Z,5.90
2018-07-31T20:42:38.238Z,5.92
2018-07-31T20:45:06.519Z,6.30
2018-07-31T20:47:34.719Z,6.60
2018-07-31T20:50:02.914Z,5.67
2018-07-31T20:52:31.047Z,5.85
2018-07-31T20:54:59.198Z,5.60
2018-07-31T20:57:27.637Z,7.58
2018-07-31T20:59:55.861Z,5.70
2018-07-31T21:02:24.541Z,4.70
2018-07-31T21:04:53.016Z,4.45
2018-07-31T21:07:21.529Z,4.80
2018-07-31T21:09:50.448Z,4.22
2018-07-31T21:12:18.973Z,4.77
2018-07-31T21:14:47.039Z,4.57
2018-07-31T21:17:15.524Z,4.53
2018-07-31T21:19:43.669Z,4.17
2018-07-31T21:22:12.010Z,3.90
2018-07-31T21:24:40.060Z,4.50
2018-07-31T21:27:08.338Z,4.22
2018-07-31T21:29:36.686Z,4.35
2018-07-31T21:32:04.961Z,4.70
2018-07-31T21:34:33.207Z,4.42
2018-07-31T21:37:01.539Z,5.53
2018-07-31T21:39:30.229Z,5.92
2018-07-31T21:41:58.614Z,4.00
2018-07-31T21:44:27.046Z,4.22
2018-07-31T21:46:55.262Z,3.80
2018-07-31T21:49:23.846Z,5.17
2018-07-31T21:51:52.071Z,3.80
2018-07-31T21:54:20.811Z,4.03
2018-07-31T21:56:49.942Z,4.40
2018-07-31T21:59:18.795Z,4.05
2018-07-31T22:01:47.430Z,4.20
2018-07-31T22:04:15.525Z,3.45
2018-07-31T22:06:43.705Z,3.70
2018-07-31T22:09:13.002Z,3.17
2018-07-31T22:11:41.513Z,3.40
2018-07-31T22:14:09.827Z,3.27
2018-07-31T22:16:38.145Z,3.10
2018-07-31T22:19:06.218Z,3.00
2018-07-31T22:21:34.431Z,3.25
2018-07-31T22:24:02.597Z,3.20
2018-07-31T22:26:30.957Z,3.08
2018-07-31T22:28:59.449Z,3.33
2018-07-31T22:31:27.704Z,2.95
2018-07-31T22:33:56.298Z,3.30
2018-07-31T22:36:24.810Z,3.30
2018-07-31T22:38:53.145Z,3.00
2018-07-31T22:41:21.182Z,3.22
2018-07-31T22:43:49.601Z,2.70
2018-07-31T22:46:17.711Z,2.87
2018-07-31T22:48:46.115Z,2.60
2018-07-31T22:51:14.122Z,3.00
2018-07-31T22:53:42.409Z,2.83
2018-07-31T22:56:10.463Z,2.30
2018-07-31T22:58:38.526Z,2.55
2018-07-31T23:01:07.014Z,2.62
2018-07-31T23:03:35.398Z,2.52
2018-07-31T23:06:03.509Z,2.22
2018-07-31T23:08:31.799Z,2.60
2018-07-31T23:11:00.171Z,2.40
2018-07-31T23:13:28.855Z,2.40
2018-07-31T23:15:56.929Z,2.20
2018-07-31T23:18:25.369Z,2.10
2018-07-31T23:20:53.834Z,2.23
2018-07-31T23:23:22.154Z,2.20
2018-07-31T23:25:50.206Z,2.50
2018-07-31T23:28:18.281Z,2.27
2018-07-31T23:30:46.326Z,2.20
2018-07-31T23:33:14.338Z,2.30
2018-07-31T23:35:42.389Z,1.93
2018-07-31T23:38:10.998Z,2.50
2018-07-31T23:40:39.281Z,2.20
2018-07-31T23:43:07.962Z,1.90
2018-07-31T23:45:36.342Z,2.10
2018-07-31T23:48:04.718Z,2.20
2018-07-31T23:50:32.759Z,2.00
2018-07-31T23:53:01.053Z,2.40
2018-07-31T23:55:29.069Z,2.75
2018-07-31T23:57:57.728Z,2.10
